Time;durP1;ratioP1;P1;durP2;ratioP2;P2;SDS_P1;SDS_P2;PMS_P1;PMS_P2;Temp;Humidity;BMP_temperature;BMP_pressure;BME280_temperature;BME280_humidity;BME280_pressure;Samples;Min_cycle;Max_cycle;Signal;HPM_P1;HPM_P2
2022/05/26 00:02:13;;;;;;;;;;;;;;;;;;4976053;28;19945;-73
2022/05/26 00:04:38;;;;;;;;;;;;;;;;;;4976567;28;20252;-73
2022/05/26 00:07:04;;;;;;;;;;;;;;;;;;4976256;28;19913;-74
2022/05/26 00:09:32;;;;;;;;;;;;;;;;;;4976076;28;19926;-74
2022/05/26 00:11:57;;;;;;;;;;;;;;;;;;4975862;28;20018;-73
2022/05/26 00:14:23;;;;;;;;;;;;;;;;;;4976349;28;20413;-75
2022/05/26 00:16:49;;;;;;;;;;;;;;;;;;4958326;28;19906;-74
2022/05/26 00:19:15;;;;;;;;;;;;;;;;;;4976006;28;20355;-74
2022/05/26 00:21:41;;;;;;;;;;;;;;;;;;4975649;28;19997;-74
2022/05/26 00:24:07;;;;;;;;;;;;;;;;;;4976196;28;19906;-74
2022/05/26 00:26:33;;;;;;;;;;;;;;;;;;4975578;28;20414;-73
2022/05/26 00:28:59;;;;;;;;;;;;;;;;;;4975735;28;19910;-74
2022/05/26 00:31:25;;;;;;;;;;;;;;;;;;4975530;28;20363;-73
2022/05/26 00:33:51;;;;;;;;;;;;;;;;;;4975385;28;19992;-74
2022/05/26 00:36:17;;;;;;;;;;;;;;;;;;4975443;28;20278;-74
2022/05/26 00:38:42;;;;;;;;;;;;;;;;;;4975441;28;19906;-73
2022/05/26 00:41:08;;;;;;;;;;;;;;;;;;4975660;28;19989;-74
2022/05/26 00:43:35;;;;;;;;;;;;;;;;;;4975329;28;19928;-73
2022/05/26 00:46:01;;;;;;;;;;;;;;;;;;4975879;28;19910;-73
2022/05/26 00:48:27;;;;;;;;;;;;;;;;;;4975194;28;19996;-74
2022/05/26 00:50:53;;;;;;;;;;;;;;;;;;4975467;28;19910;-73
2022/05/26 00:53:19;;;;;;;;;;;;;;;;;;4975178;28;19988;-73
2022/05/26 00:55:45;;;;;;;;;;;;;;;;;;4975797;28;19912;-73
2022/05/26 00:58:11;;;;;;;;;;;;;;;;;;4974916;28;19996;-74
2022/05/26 01:00:37;;;;;;;;;;;;;;;;;;4975621;28;20313;-74
2022/05/26 01:03:02;;;;;;;;;;;;;;;;;;4975002;28;19906;-73
2022/05/26 01:05:28;;;;;;;;;;;;;;;;;;4975039;28;19906;-74
2022/05/26 01:07:54;;;;;;;;;;;;;;;;;;4975531;28;20374;-74
2022/05/26 01:10:20;;;;;;;;;;;;;;;;;;4974877;28;19921;-73
2022/05/26 01:12:46;;;;;;;;;;;;;;;;;;4975491;28;20382;-74
2022/05/26 01:15:12;;;;;;;;;;;;;;;;;;4975094;28;19910;-72
2022/05/26 01:17:38;;;;;;;;;;;;;;;;;;4974896;28;20319;-73
2022/05/26 01:20:04;;;;;;;;;;;;;;;;;;4975430;28;20263;-74
2022/05/26 01:22:29;;;;;;;;;;;;;;;;;;4974761;28;19906;-72
2022/05/26 01:24:55;;;;;;;;;;;;;;;;;;4975398;28;19906;-73
2022/05/26 01:27:21;;;;;;;;;;;;;;;;;;4974830;28;20000;-74
2022/05/26 01:29:48;;;;;;;;;;;;;;;;;;4957435;28;19910;-73
2022/05/26 01:32:14;;;;;;;;;;;;;;;;;;4975104;28;20382;-74
2022/05/26 01:34:39;;;;;;;;;;;;;;;;;;4974734;28;19913;-73
2022/05/26 01:37:05;;;;;;;;;;;;;;;;;;4975012;28;19906;-73
2022/05/26 01:39:31;;;;;;;;;;;;;;;;;;4974712;28;19910;-73
2022/05/26 01:41:57;;;;;;;;;;;;;;;;;;4974690;28;19906;-73
2022/05/26 01:44:23;;;;;;;;;;;;;;;;;;4974916;28;19906;-74
2022/05/26 01:46:50;;;;;;;;;;;;;;;;;;4976438;28;20331;-74
2022/05/26 01:49:16;;;;;;;;;;;;;;;;;;4978659;28;19937;-74
2022/05/26 01:51:42;;;;;;;;;;;;;;;;;;4978422;28;19909;-73
2022/05/26 01:54:07;;;;;;;;;;;;;;;;;;4978655;28;19929;-74
2022/05/26 01:56:33;;;;;;;;;;;;;;;;;;4978628;28;19945;-74
2022/05/26 01:58:59;;;;;;;;;;;;;;;;;;4960798;28;19914;-74
2022/05/26 02:01:25;;;;;;;;;;;;;;;;;;4978295;28;19996;-74
2022/05/26 02:03:51;;;;;;;;;;;;;;;;;;4978251;28;19917;-74
2022/05/26 02:06:19;;;;;;;;;;;;;;;;;;4978836;28;20275;-74
2022/05/26 02:08:45;;;;;;;;;;;;;;;;;;4978129;28;19929;-73
2022/05/26 02:11:11;;;;;;;;;;;;;;;;;;4978665;28;20356;-75
2022/05/26 02:13:37;;;;;;;;;;;;;;;;;;4978091;28;19906;-74
2022/05/26 02:16:03;;;;;;;;;;;;;;;;;;4978121;28;19914;-74
2022/05/26 02:18:29;;;;;;;;;;;;;;;;;;4978057;28;19906;-74
2022/05/26 02:20:55;;;;;;;;;;;;;;;;;;4960628;28;19993;-73
2022/05/26 02:23:23;;;;;;;;;;;;;;;;;;4977889;28;20276;-73
2022/05/26 02:25:49;;;;;;;;;;;;;;;;;;4977843;28;19906;-74
2022/05/26 02:28:15;;;;;;;;;;;;;;;;;;4977773;28;19957;-73
2022/05/26 02:30:41;;;;;;;;;;;;;;;;;;4978250;28;20240;-73
2022/05/26 02:33:08;;;;;;;;;;;;;;;;;;4977717;28;19946;-72
2022/05/26 02:35:34;;;;;;;;;;;;;;;;;;4960086;28;19906;-74
2022/05/26 02:38:00;;;;;;;;;;;;;;;;;;4977641;28;19906;-73
2022/05/26 02:40:25;;;;;;;;;;;;;;;;;;4977627;28;20275;-74
2022/05/26 02:45:36;;;;;;;;;;;;;;;;;;4977249;28;19913;-73
2022/05/26 02:48:02;;;;;;;;;;;;;;;;;;4977422;28;20286;-74
2022/05/26 02:50:28;;;;;;;;;;;;;;;;;;4977339;28;19917;-73
2022/05/26 02:52:54;;;;;;;;;;;;;;;;;;4977605;28;19906;-74
2022/05/26 02:55:20;;;;;;;;;;;;;;;;;;4977314;28;19906;-73
2022/05/26 02:57:49;;;;;;;;;;;;;;;;;;4976658;28;19917;-74
2022/05/26 03:00:15;;;;;;;;;;;;;;;;;;4977567;28;20359;-74
2022/05/26 03:02:41;;;;;;;;;;;;;;;;;;4977183;28;19917;-73
2022/05/26 03:05:07;;;;;;;;;;;;;;;;;;4977170;28;19913;-73
2022/05/26 03:07:33;;;;;;;;;;;;;;;;;;4977348;28;19906;-73
2022/05/26 03:09:59;;;;;;;;;;;;;;;;;;4977222;28;19914;-73
2022/05/26 03:12:26;;;;;;;;;;;;;;;;;;4977056;28;19906;-74
2022/05/26 03:14:51;;;;;;;;;;;;;;;;;;4977517;28;20314;-73
2022/05/26 03:17:17;;;;;;;;;;;;;;;;;;4976872;28;19935;-74
2022/05/26 03:19:43;;;;;;;;;;;;;;;;;;4976955;28;19914;-74
2022/05/26 03:22:09;;;;;;;;;;;;;;;;;;4977150;28;19906;-74
2022/05/26 03:24:35;;;;;;;;;;;;;;;;;;4976797;28;20377;-73
2022/05/26 03:27:01;;;;;;;;;;;;;;;;;;4976791;28;20418;-74
2022/05/26 03:29:27;;;;;;;;;;;;;;;;;;4977175;28;20379;-74
2022/05/26 03:31:53;;;;;;;;;;;;;;;;;;4976912;28;19960;-73
2022/05/26 03:42:32;;;;;;;;;;;;;;;;;;4976570;28;19917;-73
2022/05/26 03:44:58;;;;;;;;;;;;;;;;;;4976390;28;20286;-73
2022/05/26 03:47:24;;;;;;;;;;;;;;;;;;4976394;28;19913;-73
2022/05/26 03:49:50;;;;;;;;;;;;;;;;;;4976533;28;19921;-73
2022/05/26 03:52:16;;;;;;;;;;;;;;;;;;4976506;28;19906;-73
2022/05/26 03:54:43;;;;;;;;;;;;;;;;;;4976194;28;19917;-74
2022/05/26 03:57:09;;;;;;;;;;;;;;;;;;4976448;28;19973;-73
2022/05/26 03:59:35;;;;;;;;;;;;;;;;;;4958322;28;20363;-73
2022/05/26 04:02:01;;;;;;;;;;;;;;;;;;4976107;28;19996;-74
2022/05/26 04:04:27;;;;;;;;;;;;;;;;;;4976351;28;20278;-74
2022/05/26 04:06:53;;;;;;;;;;;;;;;;;;4975967;28;19907;-74
2022/05/26 04:09:19;;;;;;;;;;;;;;;;;;4975390;28;19914;-74
2022/05/26 04:11:45;;;;;;;;;;;;;;;;;;4976189;28;19906;-73
2022/05/26 04:14:11;;;;;;;;;;;;;;;;;;4975891;28;19906;-74
2022/05/26 04:16:36;;;;;;;;;;;;;;;;;;4975724;28;19909;-73
2022/05/26 04:19:02;;;;;;;;;;;;;;;;;;4976035;28;19997;-73
2022/05/26 04:21:28;;;;;;;;;;;;;;;;;;4975726;28;19953;-73
2022/05/26 04:23:55;;;;;;;;;;;;;;;;;;4976223;28;19906;-74
2022/05/26 04:26:21;;;;;;;;;;;;;;;;;;4976020;28;20370;-73
2022/05/26 04:28:47;;;;;;;;;;;;;;;;;;4975514;28;19906;-74
2022/05/26 04:31:13;;;;;;;;;;;;;;;;;;4975807;28;19906;-74
2022/05/26 04:33:39;;;;;;;;;;;;;;;;;;4975479;28;19906;-74
2022/05/26 04:36:05;;;;;;;;;;;;;;;;;;4976019;28;19906;-74
2022/05/26 04:38:30;;;;;;;;;;;;;;;;;;4975465;28;19910;-73
2022/05/26 04:40:56;;;;;;;;;;;;;;;;;;4975675;28;19969;-74
2022/05/26 04:43:22;;;;;;;;;;;;;;;;;;4975624;28;19910;-74
2022/05/26 04:45:48;;;;;;;;;;;;;;;;;;4975865;28;19952;-73
2022/05/26 04:48:16;;;;;;;;;;;;;;;;;;4975253;28;20370;-74
2022/05/26 04:50:42;;;;;;;;;;;;;;;;;;4975186;28;19920;-74
2022/05/26 04:53:08;;;;;;;;;;;;;;;;;;4975212;28;19964;-73
2022/05/26 04:55:34;;;;;;;;;;;;;;;;;;4957833;28;19910;-73
2022/05/26 04:58:00;;;;;;;;;;;;;;;;;;4975160;28;19910;-74
2022/05/26 05:00:26;;;;;;;;;;;;;;;;;;4975121;28;19906;-73
2022/05/26 05:02:53;;;;;;;;;;;;;;;;;;4957774;28;20008;-74
2022/05/26 05:05:19;;;;;;;;;;;;;;;;;;4975090;28;19914;-73
2022/05/26 05:07:45;;;;;;;;;;;;;;;;;;4975084;28;19910;-74
2022/05/26 05:10:11;;;;;;;;;;;;;;;;;;4974955;28;19914;-74
2022/05/26 05:12:37;;;;;;;;;;;;;;;;;;4957665;28;19957;-73
2022/05/26 05:15:03;;;;;;;;;;;;;;;;;;4957504;28;19906;-73
2022/05/26 05:17:29;;;;;;;;;;;;;;;;;;4974898;28;19914;-73
2022/05/26 05:19:55;;;;;;;;;;;;;;;;;;4974775;28;19976;-74
2022/05/26 05:22:20;;;;;;;;;;;;;;;;;;4974895;28;19906;-74
2022/05/26 05:24:46;;;;;;;;;;;;;;;;;;4974875;28;19906;-73
2022/05/26 05:27:12;;;;;;;;;;;;;;;;;;4975383;28;20413;-73
2022/05/26 05:29:38;;;;;;;;;;;;;;;;;;4957409;28;19914;-74
2022/05/26 05:32:04;;;;;;;;;;;;;;;;;;4975072;28;19972;-73
2022/05/26 05:34:30;;;;;;;;;;;;;;;;;;4974757;28;20391;-73
2022/05/26 05:36:56;;;;;;;;;;;;;;;;;;4975007;28;19913;-73
2022/05/26 05:39:22;;;;;;;;;;;;;;;;;;4974699;28;19910;-73
2022/05/26 05:41:48;;;;;;;;;;;;;;;;;;4974731;28;19906;-74
2022/05/26 05:44:14;;;;;;;;;;;;;;;;;;4957380;28;19910;-74
2022/05/26 05:46:57;;;;;;;;;;;;;;;;;;4974644;28;19969;-73
2022/05/26 05:49:22;;;;;;;;;;;;;;;;;;4975131;28;19953;-73
2022/05/26 05:51:48;;;;;;;;;;;;;;;;;;4974891;28;19906;-73
2022/05/26 05:54:15;;;;;;;;;;;;;;;;;;4974608;28;19906;-74
2022/05/26 05:56:41;;;;;;;;;;;;;;;;;;4957058;28;20342;-73
2022/05/26 05:59:07;;;;;;;;;;;;;;;;;;4974327;28;19960;-73
2022/05/26 06:01:33;;;;;;;;;;;;;;;;;;4957222;28;19960;-74
2022/05/26 06:04:00;;;;;;;;;;;;;;;;;;4974547;28;19957;-74
2022/05/26 06:06:26;;;;;;;;;;;;;;;;;;4974839;28;19913;-74
2022/05/26 06:08:52;;;;;;;;;;;;;;;;;;4974382;28;19910;-73
2022/05/26 06:11:18;;;;;;;;;;;;;;;;;;4974441;28;20406;-74
2022/05/26 06:13:44;;;;;;;;;;;;;;;;;;4974435;28;19993;-73
2022/05/26 06:16:10;;;;;;;;;;;;;;;;;;4974910;28;19913;-73
2022/05/26 06:18:36;;;;;;;;;;;;;;;;;;4974629;28;19997;-73
2022/05/26 06:21:02;;;;;;;;;;;;;;;;;;4974364;28;19956;-73
2022/05/26 06:23:29;;;;;;;;;;;;;;;;;;4957048;28;20049;-73
2022/05/26 06:25:55;;;;;;;;;;;;;;;;;;4974677;28;19914;-73
2022/05/26 06:31:06;;;;;;;;;;;;;;;;;;4974066;28;19917;-74
2022/05/26 06:39:01;;;;;;;;;;;;;;;;;;4977701;28;19914;-73
2022/05/26 06:44:11;;;;;;;;;;;;;;;;;;4977929;28;19929;-73
2022/05/26 06:46:37;;;;;;;;;;;;;;;;;;4977791;28;20352;-73
2022/05/26 06:49:03;;;;;;;;;;;;;;;;;;4977375;28;20362;-73
2022/05/26 06:51:30;;;;;;;;;;;;;;;;;;4977414;28;19958;-74
2022/05/26 06:53:56;;;;;;;;;;;;;;;;;;4977927;28;19906;-74
2022/05/26 06:56:22;;;;;;;;;;;;;;;;;;4977320;28;20278;-73
2022/05/26 06:58:48;;;;;;;;;;;;;;;;;;4977116;28;19914;-73
2022/05/26 07:01:14;;;;;;;;;;;;;;;;;;4977481;28;19957;-74
2022/05/26 07:03:40;;;;;;;;;;;;;;;;;;4977262;28;19906;-73
2022/05/26 07:06:06;;;;;;;;;;;;;;;;;;4977297;28;19913;-75
2022/05/26 07:08:32;;;;;;;;;;;;;;;;;;4977108;28;20283;-79
2022/05/26 07:11:00;;;;;;;;;;;;;;;;;;4976954;28;19961;-77
2022/05/26 07:13:26;;;;;;;;;;;;;;;;;;4959590;28;20401;-77
2022/05/26 07:15:52;;;;;;;;;;;;;;;;;;4959409;28;20005;-78
2022/05/26 07:18:18;;;;;;;;;;;;;;;;;;4976952;28;19952;-81
2022/05/26 07:20:44;;;;;;;;;;;;;;;;;;4959464;28;19928;-80
2022/05/26 07:23:10;;;;;;;;;;;;;;;;;;4976836;28;19989;-73
2022/05/26 07:25:36;;;;;;;;;;;;;;;;;;4977334;28;19910;-73
2022/05/26 07:28:02;;;;;;;;;;;;;;;;;;4976716;28;19910;-74
2022/05/26 07:30:28;;;;;;;;;;;;;;;;;;4976922;28;19917;-73
2022/05/26 07:32:53;;;;;;;;;;;;;;;;;;4976673;28;20323;-74
2022/05/26 07:35:19;;;;;;;;;;;;;;;;;;4977165;28;19933;-74
2022/05/26 07:43:15;;;;;;;;;;;;;;;;;;4976091;28;19914;-73
2022/05/26 07:45:41;;;;;;;;;;;;;;;;;;4975727;28;19909;-73
2022/05/26 07:48:06;;;;;;;;;;;;;;;;;;4976360;28;19929;-74
2022/05/26 07:50:32;;;;;;;;;;;;;;;;;;4976289;28;19960;-75
2022/05/26 07:52:58;;;;;;;;;;;;;;;;;;4976569;28;19938;-73
2022/05/26 07:55:24;;;;;;;;;;;;;;;;;;4958638;28;20000;-74
2022/05/26 07:57:50;;;;;;;;;;;;;;;;;;4975965;28;19910;-73
2022/05/26 08:00:16;;;;;;;;;;;;;;;;;;4976761;28;20001;-73
2022/05/26 08:02:42;;;;;;;;;;;;;;;;;;4976390;28;19945;-72
2022/05/26 08:05:08;;;;;;;;;;;;;;;;;;4976326;28;19906;-72
2022/05/26 08:07:34;;;;;;;;;;;;;;;;;;4975976;28;19910;-72
2022/05/26 08:10:00;;;;;;;;;;;;;;;;;;4975930;28;19914;-72
2022/05/26 08:12:26;;;;;;;;;;;;;;;;;;4975928;28;20429;-74
2022/05/26 08:14:51;;;;;;;;;;;;;;;;;;4975893;28;20291;-73
2022/05/26 08:17:17;;;;;;;;;;;;;;;;;;4975745;28;20000;-74
2022/05/26 08:19:43;;;;;;;;;;;;;;;;;;4976077;28;19992;-73
2022/05/26 08:22:09;;;;;;;;;;;;;;;;;;4976058;28;20355;-73
2022/05/26 08:24:35;;;;;;;;;;;;;;;;;;4958379;28;20410;-72
2022/05/26 08:27:01;;;;;;;;;;;;;;;;;;4976200;28;20267;-73
2022/05/26 08:29:27;;;;;;;;;;;;;;;;;;4975549;28;20024;-74
2022/05/26 08:31:53;;;;;;;;;;;;;;;;;;4976131;28;20356;-73
2022/05/26 08:34:19;;;;;;;;;;;;;;;;;;4975497;28;19941;-72
2022/05/26 08:36:46;;;;;;;;;;;;;;;;;;4975506;28;19906;-72
2022/05/26 08:39:13;;;;;;;;;;;;;;;;;;4975446;28;20006;-72
2022/05/26 08:41:39;;;;;;;;;;;;;;;;;;4975700;28;19906;-72
2022/05/26 08:44:05;;;;;;;;;;;;;;;;;;4975338;28;19913;-73
2022/05/26 08:46:31;;;;;;;;;;;;;;;;;;4975924;28;20263;-72
2022/05/26 08:48:57;;;;;;;;;;;;;;;;;;4975219;28;20386;-73
2022/05/26 08:51:23;;;;;;;;;;;;;;;;;;4975320;28;19907;-72
2022/05/26 08:53:49;;;;;;;;;;;;;;;;;;4975534;28;19914;-74
2022/05/26 08:56:15;;;;;;;;;;;;;;;;;;4975154;28;20370;-74
2022/05/26 08:58:40;;;;;;;;;;;;;;;;;;4974993;28;20380;-73
2022/05/26 09:01:06;;;;;;;;;;;;;;;;;;4975134;28;19913;-72
2022/05/26 09:03:34;;;;;;;;;;;;;;;;;;4975682;28;20271;-72
2022/05/26 09:05:59;;;;;;;;;;;;;;;;;;4975060;28;19906;-74
2022/05/26 09:13:55;;;;;;;;;;;;;;;;;;4974771;28;19913;-73
2022/05/26 09:16:21;;;;;;;;;;;;;;;;;;4975025;28;19910;-73
2022/05/26 09:18:47;;;;;;;;;;;;;;;;;;4975468;28;19906;-72
2022/05/26 09:21:13;;;;;;;;;;;;;;;;;;4975198;28;19906;-73
2022/05/26 09:23:42;;;;;;;;;;;;;;;;;;4974883;28;20367;-73
2022/05/26 09:26:09;;;;;;;;;;;;;;;;;;4974860;28;19910;-72
2022/05/26 09:28:35;;;;;;;;;;;;;;;;;;4975095;28;20030;-74
2022/05/26 09:31:01;;;;;;;;;;;;;;;;;;4974716;28;20005;-72
2022/05/26 09:33:26;;;;;;;;;;;;;;;;;;4974760;28;19906;-73
2022/05/26 09:35:52;;;;;;;;;;;;;;;;;;4974748;28;19910;-73
2022/05/26 09:38:18;;;;;;;;;;;;;;;;;;4974739;28;19906;-71
2022/05/26 09:40:48;;;;;;;;;;;;;;;;;;4974964;28;19906;-74
2022/05/26 09:43:14;;;;;;;;;;;;;;;;;;4974691;28;19906;-72
2022/05/26 09:45:40;;;;;;;;;;;;;;;;;;4975205;28;20244;-73
2022/05/26 09:48:06;;;;;;;;;;;;;;;;;;4974919;28;20019;-74
2022/05/26 09:50:32;;;;;;;;;;;;;;;;;;4974546;28;20362;-74
2022/05/26 09:52:57;;;;;;;;;;;;;;;;;;4974584;28;19906;-72
2022/05/26 09:55:26;;;;;;;;;;;;;;;;;;4957278;28;19906;-72
2022/05/26 09:57:52;;;;;;;;;;;;;;;;;;4974379;28;20338;-72
2022/05/26 10:00:18;;;;;;;;;;;;;;;;;;4975029;28;19953;-74
2022/05/26 10:02:44;;;;;;;;;;;;;;;;;;4974801;28;19906;-73
2022/05/26 10:05:10;;;;;;;;;;;;;;;;;;4975019;28;19906;-73
2022/05/26 10:07:36;;;;;;;;;;;;;;;;;;4975556;28;20347;-74
2022/05/26 10:10:02;;;;;;;;;;;;;;;;;;4978335;28;19962;-72
2022/05/26 10:12:28;;;;;;;;;;;;;;;;;;4978382;28;19929;-74
2022/05/26 10:14:54;;;;;;;;;;;;;;;;;;4978325;28;19906;-73
2022/05/26 10:17:20;;;;;;;;;;;;;;;;;;4977961;28;19913;-72
2022/05/26 10:19:46;;;;;;;;;;;;;;;;;;4978505;28;20379;-74
2022/05/26 10:22:13;;;;;;;;;;;;;;;;;;4978233;28;20004;-72
2022/05/26 10:24:39;;;;;;;;;;;;;;;;;;4977923;28;19913;-73
2022/05/26 10:27:05;;;;;;;;;;;;;;;;;;4977849;28;19906;-72
2022/05/26 10:29:31;;;;;;;;;;;;;;;;;;4977995;28;19917;-73
2022/05/26 10:31:57;;;;;;;;;;;;;;;;;;4960391;28;19906;-72
2022/05/26 10:34:23;;;;;;;;;;;;;;;;;;4960313;28;19914;-73
2022/05/26 10:36:49;;;;;;;;;;;;;;;;;;4977943;28;19912;-74
2022/05/26 10:39:14;;;;;;;;;;;;;;;;;;4977634;28;19921;-72
2022/05/26 10:41:40;;;;;;;;;;;;;;;;;;4977863;28;19961;-72
2022/05/26 10:44:07;;;;;;;;;;;;;;;;;;4977853;28;19906;-73
2022/05/26 10:46:32;;;;;;;;;;;;;;;;;;4977587;28;20287;-73
2022/05/26 10:48:58;;;;;;;;;;;;;;;;;;4977462;28;19906;-73
2022/05/26 10:51:24;;;;;;;;;;;;;;;;;;4960121;28;19906;-74
2022/05/26 10:53:50;;;;;;;;;;;;;;;;;;4977729;28;20417;-74
2022/05/26 10:56:16;;;;;;;;;;;;;;;;;;4977361;28;20397;-73
2022/05/26 10:58:42;;;;;;;;;;;;;;;;;;4977159;28;20008;-75
2022/05/26 11:01:08;;;;;;;;;;;;;;;;;;4977303;28;20367;-73
2022/05/26 11:03:36;;;;;;;;;;;;;;;;;;4977204;28;19913;-73
2022/05/26 11:06:02;;;;;;;;;;;;;;;;;;4977451;28;20350;-74
2022/05/26 11:08:28;;;;;;;;;;;;;;;;;;4977094;28;19906;-74
2022/05/26 11:10:54;;;;;;;;;;;;;;;;;;4977018;28;20017;-73
2022/05/26 11:13:19;;;;;;;;;;;;;;;;;;4977610;28;20298;-72
2022/05/26 11:18:30;;;;;;;;;;;;;;;;;;4976473;28;20438;-72
2022/05/26 11:20:57;;;;;;;;;;;;;;;;;;4977204;28;19960;-73
2022/05/26 11:23:23;;;;;;;;;;;;;;;;;;4959500;28;19906;-72
2022/05/26 11:25:49;;;;;;;;;;;;;;;;;;4976815;28;20060;-72
2022/05/26 11:28:15;;;;;;;;;;;;;;;;;;4976734;28;19906;-75
2022/05/26 11:36:10;;;;;;;;;;;;;;;;;;4976931;28;19952;-74
2022/05/26 11:38:36;;;;;;;;;;;;;;;;;;4976828;28;20374;-73
2022/05/26 11:41:03;;;;;;;;;;;;;;;;;;4976504;28;19910;-72
2022/05/26 11:43:29;;;;;;;;;;;;;;;;;;4977041;28;19906;-74
2022/05/26 11:45:55;;;;;;;;;;;;;;;;;;4976457;28;20375;-74
2022/05/26 11:48:21;;;;;;;;;;;;;;;;;;4976388;28;19915;-74
2022/05/26 11:50:47;;;;;;;;;;;;;;;;;;4976242;28;19964;-74
2022/05/26 11:53:13;;;;;;;;;;;;;;;;;;4976361;28;19910;-72
2022/05/26 11:55:39;;;;;;;;;;;;;;;;;;4958891;28;19906;-72
2022/05/26 11:58:04;;;;;;;;;;;;;;;;;;4976172;28;19914;-74
2022/05/26 12:00:30;;;;;;;;;;;;;;;;;;4958788;28;20355;-72
2022/05/26 12:02:56;;;;;;;;;;;;;;;;;;4976389;28;19906;-73
2022/05/26 12:05:22;;;;;;;;;;;;;;;;;;4958707;28;19952;-73
2022/05/26 12:07:48;;;;;;;;;;;;;;;;;;4958633;28;19910;-74
2022/05/26 12:10:14;;;;;;;;;;;;;;;;;;4976176;28;19964;-74
2022/05/26 12:12:40;;;;;;;;;;;;;;;;;;4975972;28;19993;-74
2022/05/26 12:15:09;;;;;;;;;;;;;;;;;;4976059;28;19965;-74
2022/05/26 12:17:35;;;;;;;;;;;;;;;;;;4958467;28;20394;-72
2022/05/26 12:20:03;;;;;;;;;;;;;;;;;;4975802;28;19945;-72
2022/05/26 12:22:30;;;;;;;;;;;;;;;;;;4958460;28;20449;-74
2022/05/26 12:24:57;;;;;;;;;;;;;;;;;;4976258;28;20283;-74
2022/05/26 12:27:22;;;;;;;;;;;;;;;;;;4975633;28;19910;-73
2022/05/26 12:29:48;;;;;;;;;;;;;;;;;;4975231;28;19910;-75
2022/05/26 12:32:15;;;;;;;;;;;;;;;;;;4975510;28;20330;-73
2022/05/26 12:34:41;;;;;;;;;;;;;;;;;;4975633;28;19906;-72
2022/05/26 12:37:07;;;;;;;;;;;;;;;;;;4975427;28;19913;-77
2022/05/26 12:39:33;;;;;;;;;;;;;;;;;;4975473;28;19910;-75
2022/05/26 12:41:59;;;;;;;;;;;;;;;;;;4975477;28;19906;-73
2022/05/26 12:44:24;;;;;;;;;;;;;;;;;;4975404;28;19969;-73
2022/05/26 12:46:50;;;;;;;;;;;;;;;;;;4957742;28;19906;-74
2022/05/26 12:49:16;;;;;;;;;;;;;;;;;;4975549;28;19909;-75
2022/05/26 12:51:42;;;;;;;;;;;;;;;;;;4975266;28;19910;-74
2022/05/26 12:54:08;;;;;;;;;;;;;;;;;;4975277;28;20327;-73
2022/05/26 12:56:34;;;;;;;;;;;;;;;;;;4957752;28;20005;-74
2022/05/26 12:59:00;;;;;;;;;;;;;;;;;;4974982;28;19914;-74
2022/05/26 13:01:26;;;;;;;;;;;;;;;;;;4975723;28;20005;-76
2022/05/26 13:03:52;;;;;;;;;;;;;;;;;;4975103;28;20010;-73
2022/05/26 13:06:18;;;;;;;;;;;;;;;;;;4975510;28;20347;-74
2022/05/26 13:08:44;;;;;;;;;;;;;;;;;;4975035;28;19906;-74
2022/05/26 13:11:10;;;;;;;;;;;;;;;;;;4974960;28;20384;-74
2022/05/26 13:13:36;;;;;;;;;;;;;;;;;;4974997;28;19913;-75
2022/05/26 13:16:02;;;;;;;;;;;;;;;;;;4957357;28;19914;-76
2022/05/26 13:18:28;;;;;;;;;;;;;;;;;;4975476;28;19906;-74
2022/05/26 13:20:53;;;;;;;;;;;;;;;;;;4974934;28;19906;-74
2022/05/26 13:23:20;;;;;;;;;;;;;;;;;;4975445;28;20370;-75
2022/05/26 13:25:46;;;;;;;;;;;;;;;;;;4957399;28;19906;-74
2022/05/26 13:28:12;;;;;;;;;;;;;;;;;;4957452;28;19916;-73
2022/05/26 13:33:23;;;;;;;;;;;;;;;;;;4974606;28;19977;-74
2022/05/26 13:35:49;;;;;;;;;;;;;;;;;;4974771;28;20359;-74
2022/05/26 13:38:14;;;;;;;;;;;;;;;;;;4975028;28;19913;-74
2022/05/26 13:40:40;;;;;;;;;;;;;;;;;;4974725;28;20285;-75
2022/05/26 13:43:06;;;;;;;;;;;;;;;;;;4961034;28;19909;-74
2022/05/26 13:45:32;;;;;;;;;;;;;;;;;;4978616;28;19910;-75
2022/05/26 13:47:58;;;;;;;;;;;;;;;;;;4961279;28;19930;-74
2022/05/26 13:50:24;;;;;;;;;;;;;;;;;;4978481;28;19910;-74
2022/05/26 13:52:50;;;;;;;;;;;;;;;;;;4978494;28;20359;-74
2022/05/26 13:55:16;;;;;;;;;;;;;;;;;;4978487;28;19956;-75
2022/05/26 13:57:42;;;;;;;;;;;;;;;;;;4978229;28;20001;-74
2022/05/26 14:00:07;;;;;;;;;;;;;;;;;;4979028;28;19912;-74
2022/05/26 14:02:33;;;;;;;;;;;;;;;;;;4978344;28;19906;-73
2022/05/26 14:04:59;;;;;;;;;;;;;;;;;;4978861;28;19913;-76
2022/05/26 14:07:25;;;;;;;;;;;;;;;;;;4978557;28;19910;-75
2022/05/26 14:09:51;;;;;;;;;;;;;;;;;;4960733;28;19949;-75
2022/05/26 14:12:17;;;;;;;;;;;;;;;;;;4978492;28;19905;-75
2022/05/26 14:14:44;;;;;;;;;;;;;;;;;;4978397;28;20359;-73
2022/05/26 14:17:10;;;;;;;;;;;;;;;;;;4978000;28;19906;-75
2022/05/26 14:19:36;;;;;;;;;;;;;;;;;;4978038;28;19972;-74
2022/05/26 14:22:01;;;;;;;;;;;;;;;;;;4960640;28;19913;-75
2022/05/26 14:24:28;;;;;;;;;;;;;;;;;;4977967;28;19906;-74
2022/05/26 14:26:54;;;;;;;;;;;;;;;;;;4978306;28;19992;-76
2022/05/26 14:29:20;;;;;;;;;;;;;;;;;;4960393;28;20053;-74
2022/05/26 14:31:46;;;;;;;;;;;;;;;;;;4978392;28;19906;-74
2022/05/26 14:34:12;;;;;;;;;;;;;;;;;;4977817;28;19909;-75
2022/05/26 14:36:38;;;;;;;;;;;;;;;;;;4977993;28;20286;-76
2022/05/26 14:39:04;;;;;;;;;;;;;;;;;;4977934;28;19906;-74
2022/05/26 14:41:30;;;;;;;;;;;;;;;;;;4977642;28;19906;-74
2022/05/26 14:43:56;;;;;;;;;;;;;;;;;;4977620;28;20000;-74
2022/05/26 14:46:21;;;;;;;;;;;;;;;;;;4959995;28;19960;-73
2022/05/26 14:48:47;;;;;;;;;;;;;;;;;;4977493;28;19946;-76
2022/05/26 14:51:13;;;;;;;;;;;;;;;;;;4978002;28;20323;-73
2022/05/26 14:56:24;;;;;;;;;;;;;;;;;;4977200;28;19940;-73
2022/05/26 14:58:50;;;;;;;;;;;;;;;;;;4977247;28;19914;-73
2022/05/26 15:01:16;;;;;;;;;;;;;;;;;;4977344;28;20275;-74
2022/05/26 15:03:42;;;;;;;;;;;;;;;;;;4977257;28;19937;-73
2022/05/26 15:06:07;;;;;;;;;;;;;;;;;;4959796;28;19912;-74
2022/05/26 15:08:41;;;;;;;;;;;;;;;;;;4977635;28;19960;-76
2022/05/26 15:11:07;;;;;;;;;;;;;;;;;;4977313;28;19914;-74
2022/05/26 15:13:33;;;;;;;;;;;;;;;;;;4977039;28;19960;-74
2022/05/26 15:15:59;;;;;;;;;;;;;;;;;;4976923;28;19906;-74
2022/05/26 15:18:25;;;;;;;;;;;;;;;;;;4977483;28;19906;-74
2022/05/26 15:20:51;;;;;;;;;;;;;;;;;;4976910;28;19929;-75
2022/05/26 15:23:17;;;;;;;;;;;;;;;;;;4977437;28;20355;-74
2022/05/26 15:28:27;;;;;;;;;;;;;;;;;;4976608;28;20030;-74
2022/05/26 15:30:53;;;;;;;;;;;;;;;;;;4976963;28;19953;-74
2022/05/26 15:33:19;;;;;;;;;;;;;;;;;;4976732;28;19910;-74
2022/05/26 15:35:45;;;;;;;;;;;;;;;;;;4976952;28;19906;-74
2022/05/26 15:38:11;;;;;;;;;;;;;;;;;;4976619;28;20010;-74
2022/05/26 15:40:38;;;;;;;;;;;;;;;;;;4976573;28;20290;-74
2022/05/26 15:43:04;;;;;;;;;;;;;;;;;;4976517;28;19913;-76
2022/05/26 15:45:30;;;;;;;;;;;;;;;;;;4976466;28;19906;-76
2022/05/26 15:47:56;;;;;;;;;;;;;;;;;;4976703;28;20013;-74
2022/05/26 15:50:22;;;;;;;;;;;;;;;;;;4976362;28;20371;-74
2022/05/26 15:52:48;;;;;;;;;;;;;;;;;;4976908;28;19956;-75
2022/05/26 15:55:14;;;;;;;;;;;;;;;;;;4976602;28;20351;-74
2022/05/26 15:57:40;;;;;;;;;;;;;;;;;;4976071;28;19964;-75
2022/05/26 16:00:06;;;;;;;;;;;;;;;;;;4976555;28;19913;-75
2022/05/26 16:02:32;;;;;;;;;;;;;;;;;;4976140;28;20305;-76
2022/05/26 16:04:58;;;;;;;;;;;;;;;;;;4975177;28;19923;-74
2022/05/26 16:07:24;;;;;;;;;;;;;;;;;;4976051;28;20015;-73
2022/05/26 16:09:50;;;;;;;;;;;;;;;;;;4976494;28;20340;-74
2022/05/26 16:12:16;;;;;;;;;;;;;;;;;;4976238;28;19996;-74
2022/05/26 16:14:45;;;;;;;;;;;;;;;;;;4958605;28;20286;-76
2022/05/26 16:17:11;;;;;;;;;;;;;;;;;;4975837;28;20005;-74
2022/05/26 16:19:37;;;;;;;;;;;;;;;;;;4975882;28;20379;-76
2022/05/26 16:22:03;;;;;;;;;;;;;;;;;;4976072;28;19910;-75
2022/05/26 16:24:30;;;;;;;;;;;;;;;;;;4975775;28;20318;-75
2022/05/26 16:27:04;;;;;;;;;;;;;;;;;;5153462;27;19912;-73
2022/05/26 16:29:30;;;;;;;;;;;;;;;;;;5134213;27;19918;-75
2022/05/26 16:31:56;;;;;;;;;;;;;;;;;;5153342;27;19914;-74
2022/05/26 16:34:22;;;;;;;;;;;;;;;;;;5134180;27;19964;-74
2022/05/26 16:36:54;;;;;;;;;;;;;;;;;;5152606;27;19999;-73
2022/05/26 16:39:20;;;;;;;;;;;;;;;;;;5153186;27;20359;-72
2022/05/26 16:41:46;;;;;;;;;;;;;;;;;;5152547;27;19907;-74
2022/05/26 16:44:12;;;;;;;;;;;;;;;;;;5152539;27;20295;-73
2022/05/26 16:46:38;;;;;;;;;;;;;;;;;;5152637;27;19957;-73
2022/05/26 16:49:04;;;;;;;;;;;;;;;;;;5152704;27;20347;-73
2022/05/26 16:51:30;;;;;;;;;;;;;;;;;;5152918;27;19907;-74
2022/05/26 16:53:56;;;;;;;;;;;;;;;;;;5133775;27;20002;-73
2022/05/26 16:56:22;;;;;;;;;;;;;;;;;;5152532;27;19978;-73
2022/05/26 16:58:48;;;;;;;;;;;;;;;;;;5152508;27;19908;-73
2022/05/26 17:01:14;;;;;;;;;;;;;;;;;;5152776;27;19908;-75
2022/05/26 17:03:40;;;;;;;;;;;;;;;;;;5152131;27;19956;-73
2022/05/26 17:06:06;;;;;;;;;;;;;;;;;;5152567;27;19911;-74
2022/05/26 17:08:32;;;;;;;;;;;;;;;;;;5152010;27;20368;-74
2022/05/26 17:10:58;;;;;;;;;;;;;;;;;;5152010;27;19914;-73
2022/05/26 17:21:37;;;;;;;;;;;;;;;;;;5131134;28;20424;-72
2022/05/26 17:24:04;;;;;;;;;;;;;;;;;;5131091;28;19911;-72
2022/05/26 17:26:30;;;;;;;;;;;;;;;;;;5112244;28;20360;-73
2022/05/26 17:28:56;;;;;;;;;;;;;;;;;;5131552;28;19908;-73
2022/05/26 17:31:22;;;;;;;;;;;;;;;;;;5130827;28;20318;-74
2022/05/26 17:33:48;;;;;;;;;;;;;;;;;;5130751;28;19915;-73
2022/05/26 17:36:14;;;;;;;;;;;;;;;;;;5130184;28;19907;-73